Time;durP1;ratioP1;P1;durP2;ratioP2;P2;SDS_P1;SDS_P2;PMS_P1;PMS_P2;Temp;Humidity;BMP_temperature;BMP_pressure;BME280_temperature;BME280_humidity;BME280_pressure;Samples;Min_cycle;Max_cycle;Signal;HPM_P1;HPM_P2
2023/09/25 00:02:13;;;;;;;16.53;6.13;;;;;;;21.18;91.61;95243.69;5036093;28;20224;-73
2023/09/25 00:04:39;;;;;;;22.63;5.87;;;;;;;21.05;92.35;95244.13;5048077;28;20252;-73
2023/09/25 00:07:04;;;;;;;20.70;6.00;;;;;;;21.03;92.49;95245.41;5063441;28;20294;-73
2023/09/25 00:09:30;;;;;;;19.73;6.50;;;;;;;20.98;92.82;95238.19;5049324;28;20221;-73
2023/09/25 00:11:55;;;;;;;15.48;5.75;;;;;;;21.07;91.00;95250.00;5071190;28;20216;-73
2023/09/25 00:17:05;;;;;;;17.17;5.78;;;;;;;21.14;90.61;95245.25;5062138;28;20673;-73
2023/09/25 00:19:31;;;;;;;18.50;5.90;;;;;;;21.23;89.73;95250.91;5065120;28;20914;-73
2023/09/25 00:21:57;;;;;;;16.27;5.53;;;;;;;21.20;89.79;95244.22;5065270;28;20289;-73
2023/09/25 00:24:22;;;;;;;20.43;5.50;;;;;;;21.14;89.28;95236.44;5071630;28;20216;-73
2023/09/25 00:26:49;;;;;;;15.40;5.43;;;;;;;21.13;89.09;95234.88;5053921;28;20274;-74
2023/09/25 00:29:14;;;;;;;17.25;5.75;;;;;;;21.15;89.82;95240.72;5077204;28;20311;-73
2023/09/25 00:31:40;;;;;;;13.47;5.73;;;;;;;21.07;90.64;95238.53;5058154;28;20311;-74
2023/09/25 00:34:05;;;;;;;19.33;5.73;;;;;;;21.03;91.25;95234.75;5073089;28;20784;-73
2023/09/25 00:36:31;;;;;;;12.85;5.32;;;;;;;20.91;91.87;95226.97;5059730;28;20223;-72
2023/09/25 00:38:56;;;;;;;15.50;5.50;;;;;;;20.95;91.69;95237.88;5059731;28;20250;-73
2023/09/25 00:41:21;;;;;;;16.08;5.40;;;;;;;20.94;90.35;95237.09;5067022;28;20220;-74
2023/09/25 00:43:47;;;;;;;15.50;5.37;;;;;;;20.95;89.83;95233.38;5052941;28;20234;-74
2023/09/25 00:46:12;;;;;;;16.40;5.43;;;;;;;20.96;90.33;95239.50;5051987;28;20247;-73
2023/09/25 00:48:42;;;;;;;18.97;5.67;;;;;;;20.93;89.75;95238.16;5070571;28;20234;-73
2023/09/25 00:51:07;;;;;;;14.90;5.30;;;;;;;20.93;89.91;95242.66;5070400;28;20224;-74
2023/09/25 00:53:33;;;;;;;15.27;5.20;;;;;;;20.98;89.77;95246.19;5050730;28;20615;-73
2023/09/25 00:55:58;;;;;;;11.50;4.70;;;;;;;20.95;89.64;95251.19;5067558;28;20319;-73
2023/09/25 00:58:24;;;;;;;13.87;5.20;;;;;;;20.96;90.38;95250.97;5065106;28;20220;-73
2023/09/25 01:00:50;;;;;;;11.37;5.20;;;;;;;20.99;90.74;95249.66;5067819;28;20220;-73
2023/09/25 01:03:15;;;;;;;17.37;5.47;;;;;;;20.79;93.01;95243.13;5058602;28;20274;-73
2023/09/25 01:05:41;;;;;;;18.23;5.17;;;;;;;20.65;93.56;95238.47;5040840;28;20225;-73
2023/09/25 01:08:07;;;;;;;14.53;5.37;;;;;;;20.71;91.79;95248.09;5074796;28;20247;-73
2023/09/25 01:10:32;;;;;;;15.07;5.60;;;;;;;20.80;92.14;95243.94;5055597;28;20224;-73
2023/09/25 01:12:59;;;;;;;16.60;5.40;;;;;;;20.76;92.24;95251.59;5036176;28;20327;-72
2023/09/25 01:15:25;;;;;;;10.47;5.03;;;;;;;20.78;93.08;95251.34;5058739;28;20224;-73
2023/09/25 01:17:51;;;;;;;15.33;5.37;;;;;;;20.75;91.43;95249.97;5057846;28;20246;-73
2023/09/25 01:20:17;;;;;;;19.83;5.93;;;;;;;20.75;91.75;95254.53;5072683;28;20218;-73
2023/09/25 01:22:51;;;;;;;16.00;5.53;;;;;;;20.65;92.50;95257.91;5043311;28;20228;-73
2023/09/25 01:25:18;;;;;;;14.40;5.77;;;;;;;20.61;92.39;95258.66;5031454;28;20219;-74
2023/09/25 01:27:44;;;;;;;14.50;5.50;;;;;;;20.57;92.60;95261.03;5060972;28;20227;-73
2023/09/25 01:30:13;;;;;;;11.40;5.50;;;;;;;20.60;92.43;95262.38;5068582;28;20230;-74
2023/09/25 01:32:40;;;;;;;14.10;5.27;;;;;;;20.66;92.60;95253.38;5074760;28;20228;-73
2023/09/25 01:35:08;;;;;;;12.27;5.60;;;;;;;20.67;91.97;95252.31;5039218;28;20216;-73
2023/09/25 01:37:34;;;;;;;14.00;5.40;;;;;;;20.63;92.02;95262.69;5047517;28;20255;-73
2023/09/25 01:39:59;;;;;;;12.67;5.30;;;;;;;20.58;92.62;95275.94;5031404;28;20247;-73
2023/09/25 01:42:25;;;;;;;16.20;5.80;;;;;;;20.59;92.56;95272.22;5030091;28;20221;-72
2023/09/25 01:44:50;;;;;;;14.57;5.83;;;;;;;20.59;92.20;95271.41;5045213;28;20292;-73
2023/09/25 01:47:17;;;;;;;14.50;5.43;;;;;;;20.47;91.98;95268.09;5069719;28;20236;-73
2023/09/25 01:49:43;;;;;;;14.40;5.50;;;;;;;20.49;92.37;95274.00;5074673;28;20227;-73
2023/09/25 01:52:09;;;;;;;13.07;5.03;;;;;;;20.49;92.05;95266.78;5068874;28;20220;-74
2023/09/25 01:54:35;;;;;;;12.23;5.10;;;;;;;20.51;91.90;95263.91;5058272;28;20267;-73
2023/09/25 01:57:04;;;;;;;12.23;4.97;;;;;;;20.50;91.47;95268.41;5058232;28;20243;-74
2023/09/25 01:59:30;;;;;;;11.60;5.23;;;;;;;20.50;91.20;95271.06;5071319;28;20228;-73
2023/09/25 02:01:55;;;;;;;13.80;5.57;;;;;;;20.44;92.28;95271.28;5067332;28;20260;-73
2023/09/25 02:04:21;;;;;;;10.97;5.00;;;;;;;20.53;91.65;95281.22;5066346;28;20260;-74
2023/09/25 02:06:46;;;;;;;11.40;5.30;;;;;;;20.51;91.14;95277.19;5044277;28;20228;-73
2023/09/25 02:09:12;;;;;;;10.80;5.03;;;;;;;20.43;91.77;95283.75;5038581;28;20232;-73
2023/09/25 02:11:37;;;;;;;10.53;5.33;;;;;;;20.50;91.18;95295.00;5052875;28;20231;-73
2023/09/25 02:14:04;;;;;;;9.37;5.00;;;;;;;20.48;90.85;95297.13;5071712;28;20348;-73
2023/09/25 02:16:30;;;;;;;13.77;4.97;;;;;;;20.46;91.42;95295.75;5068542;28;20700;-73
2023/09/25 02:18:55;;;;;;;15.73;4.80;;;;;;;20.36;91.46;95293.81;5043326;28;20228;-73
2023/09/25 02:21:21;;;;;;;13.90;5.50;;;;;;;20.40;91.48;95296.75;5064365;28;20251;-73
2023/09/25 02:23:46;;;;;;;12.50;5.00;;;;;;;20.34;91.28;95292.44;5059593;28;20309;-73
2023/09/25 02:26:12;;;;;;;11.27;4.53;;;;;;;20.28;90.46;95291.59;5050921;28;20269;-73
2023/09/25 02:28:38;;;;;;;12.43;5.03;;;;;;;20.35;90.14;95291.41;5053221;28;20251;-73
2023/09/25 02:31:03;;;;;;;12.67;5.57;;;;;;;20.32;90.01;95290.06;5051165;28;20229;-73
2023/09/25 02:33:29;;;;;;;13.37;5.30;;;;;;;20.26;90.13;95292.88;5060919;28;20298;-73
2023/09/25 02:36:07;;;;;;;13.27;4.97;;;;;;;20.23;89.31;95294.19;5046342;28;20237;-74
2023/09/25 02:38:33;;;;;;;12.67;5.00;;;;;;;20.28;88.75;95301.41;5046199;28;20228;-73
2023/09/25 02:40:58;;;;;;;9.23;4.90;;;;;;;20.30;88.59;95304.66;5067004;28;20220;-73
2023/09/25 02:43:23;;;;;;;10.97;5.30;;;;;;;20.24;89.53;95302.97;5053054;28;20661;-73
2023/09/25 02:45:51;;;;;;;12.60;4.90;;;;;;;20.15;90.65;95307.91;5065804;28;20225;-72
2023/09/25 02:48:16;;;;;;;13.67;5.10;;;;;;;20.09;89.74;95315.00;5043564;28;20237;-73
2023/09/25 02:50:42;;;;;;;11.87;5.07;;;;;;;20.07;89.88;95303.03;5060039;28;20291;-73
2023/09/25 02:53:07;;;;;;;7.53;4.80;;;;;;;20.08;89.15;95305.41;5057639;28;20252;-72
2023/09/25 02:55:33;;;;;;;10.77;4.80;;;;;;;20.17;89.65;95317.25;5063857;28;20213;-72
2023/09/25 02:57:58;;;;;;;13.03;4.93;;;;;;;20.05;89.78;95321.06;5055144;28;20251;-72
2023/09/25 03:00:24;;;;;;;11.07;4.83;;;;;;;20.02;89.46;95316.25;5069045;28;20225;-73
2023/09/25 03:02:50;;;;;;;10.93;5.20;;;;;;;19.90;90.65;95324.34;5048218;28;20233;-72
2023/09/25 03:05:15;;;;;;;9.13;4.87;;;;;;;19.87;91.27;95324.06;5063033;28;20693;-73
2023/09/25 03:07:41;;;;;;;13.40;5.30;;;;;;;19.70;92.13;95321.47;5072119;28;20222;-73
2023/09/25 03:10:07;;;;;;;7.63;5.07;;;;;;;19.69;92.65;95319.84;5048397;28;20221;-72
2023/09/25 03:12:33;;;;;;;15.20;4.87;;;;;;;19.79;91.37;95321.81;5067198;28;20229;-72
2023/09/25 03:14:58;;;;;;;12.43;5.17;;;;;;;19.91;90.91;95328.63;5063096;28;20221;-73
2023/09/25 03:17:24;;;;;;;12.37;5.50;;;;;;;19.87;90.17;95332.81;5044864;28;20228;-72
2023/09/25 03:19:51;;;;;;;12.37;5.13;;;;;;;19.89;90.51;95332.56;5069599;28;20216;-74
2023/09/25 03:22:16;;;;;;;8.23;4.93;;;;;;;19.86;89.83;95335.72;5060501;28;20295;-74
2023/09/25 03:24:42;;;;;;;9.17;5.00;;;;;;;19.89;90.18;95341.34;5067029;28;20236;-74
2023/09/25 03:27:07;;;;;;;9.73;5.40;;;;;;;19.91;90.91;95338.44;5065500;28;20216;-75
2023/09/25 03:29:33;;;;;;;11.27;5.93;;;;;;;19.95;88.84;95335.03;5060233;28;20231;-73
2023/09/25 03:31:58;;;;;;;14.43;5.90;;;;;;;19.88;89.82;95334.44;5063998;28;20308;-73
2023/09/25 03:34:23;;;;;;;12.27;6.20;;;;;;;19.84;89.90;95343.94;5056925;28;20231;-74
2023/09/25 03:36:49;;;;;;;14.37;6.20;;;;;;;19.80;90.04;95345.47;5054693;28;20285;-74
2023/09/25 03:39:17;;;;;;;15.23;6.87;;;;;;;19.76;90.08;95340.91;5048259;28;20224;-74
2023/09/25 03:41:42;;;;;;;12.40;6.80;;;;;;;19.82;89.87;95340.72;5053142;28;20291;-74
2023/09/25 03:44:08;;;;;;;12.47;7.10;;;;;;;19.85;90.26;95339.41;5066149;28;20237;-74
2023/09/25 03:46:33;;;;;;;14.53;7.43;;;;;;;19.83;89.87;95344.19;5052877;28;20816;-73
2023/09/25 03:49:05;;;;;;;13.80;8.23;;;;;;;19.75;90.04;95350.72;5072532;28;20707;-74
2023/09/25 03:51:33;;;;;;;15.13;8.53;;;;;;;19.77;89.71;95353.16;5062892;28;20357;-73
2023/09/25 03:53:59;;;;;;;15.03;7.97;;;;;;;19.82;90.17;95356.66;5068941;28;20247;-74
2023/09/25 03:56:25;;;;;;;15.80;7.30;;;;;;;19.78;90.05;95363.50;5064612;28;20224;-75
2023/09/25 03:58:51;;;;;;;12.90;7.27;;;;;;;19.70;90.48;95353.34;5061964;28;20233;-75
2023/09/25 04:01:17;;;;;;;12.20;7.10;;;;;;;19.66;90.76;95357.50;5073637;28;20229;-74
2023/09/25 04:03:42;;;;;;;11.30;7.10;;;;;;;19.62;91.43;95359.03;5052459;28;20237;-74
2023/09/25 04:06:08;;;;;;;10.77;6.97;;;;;;;19.66;91.10;95362.81;5052178;28;20929;-74
2023/09/25 04:08:34;;;;;;;12.47;7.03;;;;;;;19.76;91.50;95362.16;5068589;28;20232;-74
2023/09/25 04:10:59;;;;;;;12.40;7.33;;;;;;;19.68;91.94;95357.28;5065923;28;20228;-74
2023/09/25 04:13:26;;;;;;;13.53;6.93;;;;;;;19.59;92.30;95364.84;5066250;28;20224;-74
2023/09/25 04:15:52;;;;;;;14.17;6.93;;;;;;;19.56;92.59;95361.88;5056397;28;20581;-74
2023/09/25 04:18:18;;;;;;;12.57;7.03;;;;;;;19.55;92.98;95366.38;5036047;28;20228;-74
2023/09/25 04:20:44;;;;;;;14.87;7.40;;;;;;;19.46;94.32;95368.63;5035617;28;20279;-74
2023/09/25 04:23:10;;;;;;;14.80;7.60;;;;;;;19.29;94.30;95372.34;5051373;28;20232;-74
2023/09/25 04:25:35;;;;;;;14.03;8.00;;;;;;;19.24;95.60;95375.72;5065325;28;20229;-74
2023/09/25 04:28:01;;;;;;;12.67;7.53;;;;;;;19.30;94.33;95376.59;5051905;28;20749;-73
2023/09/25 04:30:27;;;;;;;13.13;7.90;;;;;;;19.29;94.65;95385.59;5059536;28;20225;-75
2023/09/25 04:32:56;;;;;;;13.37;7.87;;;;;;;19.24;95.75;95383.69;5070783;28;20623;-74
2023/09/25 04:35:22;;;;;;;12.80;8.10;;;;;;;19.25;94.96;95379.19;5050595;28;20241;-75
2023/09/25 04:37:48;;;;;;;13.63;8.40;;;;;;;19.34;95.15;95377.72;5049408;28;20612;-74
2023/09/25 04:42:47;;;;;;;14.37;8.60;;;;;;;19.30;95.40;95381.88;5052144;28;20691;-72
2023/09/25 04:45:13;;;;;;;12.07;7.87;;;;;;;19.28;95.42;95384.78;5054803;28;20229;-73
2023/09/25 04:47:41;;;;;;;14.50;8.87;;;;;;;19.35;95.52;95381.97;5067543;28;20307;-73
2023/09/25 04:50:08;;;;;;;11.37;8.07;;;;;;;19.30;96.05;95384.53;5066389;28;20266;-74
2023/09/25 04:52:34;;;;;;;15.07;8.73;;;;;;;19.28;95.78;95390.09;5041065;28;20225;-73
2023/09/25 04:55:02;;;;;;;14.80;9.27;;;;;;;19.19;96.84;95398.72;5025381;28;20228;-74
2023/09/25 04:57:28;;;;;;;17.23;9.20;;;;;;;19.31;96.79;95391.47;5061941;28;20366;-74
2023/09/25 04:59:54;;;;;;;18.63;9.67;;;;;;;19.29;97.00;95386.41;5066174;28;20228;-74
2023/09/25 05:02:19;;;;;;;15.77;9.60;;;;;;;19.23;95.84;95384.72;5045176;28;20690;-74
2023/09/25 05:04:44;;;;;;;15.47;10.00;;;;;;;19.22;96.69;95385.78;5059842;28;20225;-74
2023/09/25 05:07:10;;;;;;;17.00;10.00;;;;;;;19.21;97.08;95396.63;5037206;28;20775;-73
2023/09/25 05:09:36;;;;;;;19.87;10.10;;;;;;;19.24;96.50;95396.16;5033632;28;20232;-74
2023/09/25 05:12:01;;;;;;;16.60;9.97;;;;;;;19.29;96.04;95390.91;5062390;28;20266;-73
2023/09/25 05:14:28;;;;;;;15.67;9.57;;;;;;;19.20;96.78;95397.69;5058084;28;20235;-73
2023/09/25 05:16:54;;;;;;;17.43;10.00;;;;;;;19.25;96.68;95395.09;5059718;28;20229;-73
2023/09/25 05:19:20;;;;;;;18.77;9.90;;;;;;;19.34;95.76;95402.44;5069444;28;20699;-73
2023/09/25 05:21:45;;;;;;;13.80;8.83;;;;;;;19.30;95.80;95401.28;5058038;28;20220;-74
2023/09/25 05:24:11;;;;;;;16.70;8.30;;;;;;;19.31;95.16;95396.78;5059950;28;20218;-72
2023/09/25 05:26:36;;;;;;;15.63;7.70;;;;;;;19.38;94.09;95405.41;5059324;28;20216;-73
2023/09/25 05:29:02;;;;;;;14.03;7.43;;;;;;;19.41;94.69;95410.25;5029886;28;20271;-73
2023/09/25 05:31:28;;;;;;;15.70;7.60;;;;;;;19.36;95.36;95405.66;5068887;28;20227;-73
2023/09/25 05:33:53;;;;;;;15.93;7.37;;;;;;;19.38;93.70;95413.38;5054402;28;20242;-74
2023/09/25 05:36:20;;;;;;;14.27;6.90;;;;;;;19.38;94.39;95408.06;5034196;28;20321;-75
2023/09/25 05:38:45;;;;;;;14.60;7.00;;;;;;;19.32;94.71;95412.47;5052994;28;20264;-75
2023/09/25 05:41:11;;;;;;;16.00;7.50;;;;;;;19.45;93.75;95424.66;5054761;28;20224;-75
2023/09/25 05:43:36;;;;;;;12.53;7.73;;;;;;;19.47;93.77;95431.31;5064884;28;20225;-75
2023/09/25 05:46:02;;;;;;;17.83;8.33;;;;;;;19.43;94.76;95429.41;5033553;28;20236;-74
2023/09/25 05:48:27;;;;;;;17.20;8.23;;;;;;;19.48;94.76;95429.47;5067686;28;20239;-74
2023/09/25 05:50:53;;;;;;;14.93;8.13;;;;;;;19.43;94.67;95430.22;5063789;28;20394;-76
2023/09/25 05:53:19;;;;;;;13.97;8.30;;;;;;;19.62;94.61;95424.63;5062639;28;20252;-75
2023/09/25 05:55:45;;;;;;;14.33;8.87;;;;;;;19.67;94.03;95428.19;5055082;28;20237;-75
2023/09/25 05:58:10;;;;;;;15.63;8.57;;;;;;;19.69;93.09;95423.44;5061258;28;20225;-74
2023/09/25 06:00:37;;;;;;;16.13;8.60;;;;;;;19.71;92.90;95429.28;5061761;28;20228;-75
2023/09/25 06:03:04;;;;;;;18.67;8.87;;;;;;;19.72;93.73;95430.91;5067887;28;20225;-75
2023/09/25 06:05:30;;;;;;;15.07;9.00;;;;;;;19.78;93.19;95432.59;5049080;28;20235;-75
2023/09/25 06:07:55;;;;;;;19.23;9.43;;;;;;;19.83;93.39;95435.31;5063938;28;20238;-76
2023/09/25 06:10:23;;;;;;;17.63;9.93;;;;;;;19.85;93.54;95438.53;5066149;28;20218;-75
2023/09/25 06:12:50;;;;;;;15.63;9.63;;;;;;;19.90;94.05;95437.78;5036256;28;20229;-75
2023/09/25 06:15:15;;;;;;;16.37;9.57;;;;;;;19.99;93.58;95436.34;5049925;28;20231;-75
2023/09/25 06:17:42;;;;;;;20.47;10.50;;;;;;;19.99;93.29;95441.66;5067077;28;20607;-75
2023/09/25 06:20:15;;;;;;;16.80;10.33;;;;;;;20.08;93.23;95438.31;5060464;28;20252;-73
2023/09/25 06:22:41;;;;;;;17.27;10.00;;;;;;;20.14;93.45;95444.50;5047815;28;20231;-73
2023/09/25 06:25:11;;;;;;;16.60;9.50;;;;;;;20.12;93.79;95439.44;5048156;28;20887;-73
2023/09/25 06:27:36;;;;;;;14.70;10.13;;;;;;;20.21;93.27;95442.47;5051047;28;20228;-74
2023/09/25 06:30:02;;;;;;;17.83;10.70;;;;;;;20.06;93.13;95450.25;5068800;28;20294;-73
2023/09/25 06:32:27;;;;;;;18.60;10.10;;;;;;;20.08;93.21;95448.16;5060055;28;20340;-74
2023/09/25 06:34:53;;;;;;;18.07;10.97;;;;;;;20.13;93.57;95459.66;5057634;28;20233;-74
2023/09/25 06:37:19;;;;;;;20.90;11.20;;;;;;;20.21;93.00;95460.28;5054825;28;20219;-74
2023/09/25 06:39:44;;;;;;;22.37;10.80;;;;;;;20.13;93.56;95462.31;5047792;28;20222;-73
2023/09/25 06:42:10;;;;;;;24.80;11.30;;;;;;;20.23;93.04;95464.31;5063116;28;20296;-73
2023/09/25 06:44:35;;;;;;;19.63;12.17;;;;;;;20.26;92.37;95463.84;5065199;28;20225;-73
2023/09/25 06:47:01;;;;;;;24.57;12.40;;;;;;;20.37;92.35;95467.44;5062187;28;20213;-74
2023/09/25 06:49:26;;;;;;;24.87;12.77;;;;;;;20.43;92.66;95466.44;5064816;28;20228;-74
2023/09/25 06:51:52;;;;;;;20.30;12.97;;;;;;;20.48;91.65;95480.63;5070880;28;20456;-73
2023/09/25 06:54:17;;;;;;;23.67;12.90;;;;;;;20.52;91.98;95467.63;5063902;28;20229;-73
2023/09/25 06:56:43;;;;;;;21.93;13.07;;;;;;;20.51;93.13;95477.47;5057930;28;20750;-73
2023/09/25 06:59:09;;;;;;;24.93;13.10;;;;;;;20.60;92.51;95477.84;5066848;28;20264;-74
2023/09/25 07:01:35;;;;;;;24.93;12.50;;;;;;;20.67;90.70;95483.78;5068438;28;20296;-73
2023/09/25 07:04:00;;;;;;;20.60;12.73;;;;;;;20.69;91.22;95479.00;5052680;28;20232;-73
2023/09/25 07:06:26;;;;;;;24.07;13.47;;;;;;;20.79;90.08;95481.78;5063014;28;20287;-72
2023/09/25 07:08:51;;;;;;;22.20;13.40;;;;;;;20.92;90.17;95469.97;5056195;28;20743;-73
2023/09/25 07:11:18;;;;;;;23.27;13.70;;;;;;;20.98;89.82;95479.59;5046894;28;20773;-73
2023/09/25 07:13:43;;;;;;;24.70;13.30;;;;;;;21.08;89.45;95469.91;5071758;28;20712;-73
2023/09/25 07:16:10;;;;;;;19.87;13.17;;;;;;;21.27;87.11;95471.16;5077656;28;20240;-73
2023/09/25 07:18:39;;;;;;;24.40;13.40;;;;;;;21.34;87.29;95471.75;5070379;28;20328;-73
2023/09/25 07:21:05;;;;;;;27.10;14.07;;;;;;;21.37;83.78;95475.75;5060726;28;20233;-74
2023/09/25 07:23:31;;;;;;;24.40;14.33;;;;;;;21.41;83.62;95480.34;5059857;28;20233;-73
2023/09/25 07:26:10;;;;;;;21.17;13.93;;;;;;;21.46;84.11;95472.38;5069092;28;20320;-74
2023/09/25 07:28:36;;;;;;;22.90;14.03;;;;;;;21.49;82.41;95477.19;5043683;28;20247;-73
2023/09/25 07:31:02;;;;;;;24.27;13.70;;;;;;;21.54;81.46;95476.44;5024264;28;20227;-74
2023/09/25 07:33:28;;;;;;;23.03;13.80;;;;;;;21.58;80.25;95482.06;5053125;28;20613;-73
2023/09/25 07:35:54;;;;;;;22.40;13.23;;;;;;;21.56;79.60;95478.84;5061588;28;20229;-73
2023/09/25 07:38:19;;;;;;;20.48;12.30;;;;;;;21.70;78.41;95491.50;5054146;28;20306;-74
2023/09/25 07:40:46;;;;;;;22.83;14.00;;;;;;;21.76;79.54;95485.13;5067908;28;20220;-74
2023/09/25 07:43:12;;;;;;;20.77;12.37;;;;;;;21.79;78.53;95486.50;5067458;28;20751;-73
2023/09/25 07:45:38;;;;;;;23.30;13.33;;;;;;;21.78;79.31;95492.91;5067676;28;20288;-73
2023/09/25 07:48:05;;;;;;;23.25;13.27;;;;;;;21.81;80.15;95492.38;5051101;28;20292;-73
2023/09/25 07:50:31;;;;;;;18.30;11.50;;;;;;;21.74;77.08;95491.78;5062965;28;20224;-74
2023/09/25 07:52:58;;;;;;;20.73;11.10;;;;;;;21.77;77.28;95493.94;5068279;28;20738;-73
2023/09/25 07:55:24;;;;;;;19.23;11.87;;;;;;;21.81;78.25;95492.38;5052414;28;20305;-73
2023/09/25 07:57:50;;;;;;;16.25;10.55;;;;;;;21.92;77.91;95494.09;5070982;28;20614;-74
2023/09/25 08:02:47;;;;;;;16.33;10.50;;;;;;;22.02;78.30;95494.16;5063979;28;20239;-74
2023/09/25 08:05:19;;;;;;;16.20;10.57;;;;;;;22.13;78.62;95496.66;5065661;28;20309;-74
2023/09/25 08:07:54;;;;;;;19.85;10.68;;;;;;;22.18;77.17;95487.06;5052060;28;20309;-74
2023/09/25 08:10:19;;;;;;;16.73;10.05;;;;;;;22.25;77.25;95485.78;5035430;28;20252;-74
2023/09/25 08:12:45;;;;;;;17.00;10.30;;;;;;;22.21;76.87;95476.66;5047600;28;20300;-73
2023/09/25 08:15:11;;;;;;;21.10;10.03;;;;;;;22.30;77.36;95485.81;5046944;28;20626;-73
2023/09/25 08:17:37;;;;;;;18.95;8.70;;;;;;;22.35;76.65;95488.50;5062123;28;20964;-74
2023/09/25 08:20:14;;;;;;;12.57;8.30;;;;;;;22.32;76.02;95489.00;5066209;28;20232;-73
2023/09/25 08:22:43;;;;;;;12.70;8.27;;;;;;;22.33;76.11;95485.28;5060077;28;20236;-74
2023/09/25 08:25:09;;;;;;;16.63;7.85;;;;;;;22.32;75.30;95480.22;5051922;28;20236;-73
2023/09/25 08:27:35;;;;;;;12.50;8.02;;;;;;;22.24;76.18;95476.16;5045373;28;20283;-75
2023/09/25 08:30:03;;;;;;;13.88;7.65;;;;;;;22.32;76.39;95483.69;5059966;28;20236;-74
2023/09/25 08:32:28;;;;;;;18.50;8.35;;;;;;;22.34;77.40;95481.56;5053362;28;20225;-73
2023/09/25 08:34:54;;;;;;;14.40;7.95;;;;;;;22.40;76.41;95474.38;5067824;28;20232;-74
2023/09/25 08:37:19;;;;;;;13.57;6.68;;;;;;;22.68;74.24;95484.69;5060966;28;20286;-72
2023/09/25 08:39:45;;;;;;;16.00;6.68;;;;;;;22.65;73.28;95482.53;5053537;28;20229;-74
2023/09/25 08:42:10;;;;;;;12.63;6.43;;;;;;;22.53;72.51;95485.38;5054447;28;20256;-72
2023/09/25 08:44:37;;;;;;;12.43;6.30;;;;;;;22.55;73.94;95485.13;5066101;28;20259;-73
2023/09/25 08:47:02;;;;;;;10.50;6.03;;;;;;;;;;5068879;28;20239;-74
2023/09/25 08:49:28;;;;;;;12.18;6.30;;;;;;;22.48;73.37;95482.69;5069014;28;20231;-73
2023/09/25 08:51:53;;;;;;;10.95;6.15;;;;;;;22.45;73.27;95480.53;5053212;28;20245;-75
2023/09/25 08:54:19;;;;;;;12.48;6.20;;;;;;;22.57;73.26;95485.69;5062561;28;20783;-74
2023/09/25 08:56:45;;;;;;;10.07;6.40;;;;;;;22.62;73.71;95489.19;5047831;28;20297;-74
2023/09/25 08:59:11;;;;;;;12.32;5.65;;;;;;;22.47;72.53;95486.44;5074632;28;20898;-73
2023/09/25 09:01:37;;;;;;;9.48;5.35;;;;;;;22.21;73.26;95478.56;5050313;28;20236;-73
2023/09/25 09:04:03;;;;;;;15.02;5.43;;;;;;;22.26;74.01;95484.69;5048939;28;20236;-74
2023/09/25 09:06:29;;;;;;;7.78;5.30;;;;;;;22.27;74.24;95483.66;5067841;28;20370;-73
2023/09/25 09:08:57;;;;;;;11.00;5.78;;;;;;;22.33;74.87;95482.59;5053308;28;20798;-73
2023/09/25 09:11:22;;;;;;;10.23;5.45;;;;;;;22.29;74.19;95476.19;5047868;28;20259;-73
2023/09/25 09:13:48;;;;;;;11.93;5.80;;;;;;;22.41;74.59;95482.13;5066307;28;20877;-73
2023/09/25 09:16:16;;;;;;;9.43;5.55;;;;;;;22.39;74.88;95478.91;5047680;28;20233;-74
2023/09/25 09:18:42;;;;;;;11.88;5.70;;;;;;;22.38;74.83;95473.84;5035159;28;20265;-73
2023/09/25 09:21:24;;;;;;;9.63;5.57;;;;;;;22.38;75.12;95473.84;5031657;28;20251;-76
2023/09/25 09:23:50;;;;;;;15.95;5.78;;;;;;;22.44;74.99;95481.63;5044408;28;20241;-73
2023/09/25 09:26:16;;;;;;;12.18;5.50;;;;;;;22.50;75.55;95485.09;5065829;28;20706;-74
2023/09/25 09:28:46;;;;;;;11.95;5.60;;;;;;;22.50;74.32;95488.56;5049335;28;20280;-73
2023/09/25 09:31:12;;;;;;;11.88;5.57;;;;;;;22.55;74.97;95488.59;5062557;28;20225;-74
2023/09/25 09:33:41;;;;;;;13.85;5.75;;;;;;;22.55;74.63;95479.78;5039458;28;20248;-74
2023/09/25 09:36:07;;;;;;;8.32;5.30;;;;;;;22.64;74.33;95484.38;5033400;28;20234;-73
2023/09/25 09:38:33;;;;;;;11.02;5.30;;;;;;;22.66;74.21;95495.59;5056597;28;20233;-74
2023/09/25 09:41:00;;;;;;;7.60;5.35;;;;;;;22.57;73.99;95489.13;5027664;28;20224;-73
2023/09/25 09:43:25;;;;;;;9.15;5.13;;;;;;;22.56;73.17;95484.06;5044857;28;20278;-73
2023/09/25 09:45:51;;;;;;;11.20;5.28;;;;;;;22.65;73.05;95490.53;5053447;28;20224;-72
2023/09/25 09:48:17;;;;;;;11.27;5.63;;;;;;;22.68;72.85;95495.34;5034835;28;20240;-74
2023/09/25 09:50:44;;;;;;;11.45;5.82;;;;;;;22.72;73.22;95488.44;5059396;28;20290;-74
2023/09/25 09:53:09;;;;;;;11.88;5.32;;;;;;;23.05;72.08;95487.19;5033265;28;20225;-73
2023/09/25 09:55:35;;;;;;;9.53;5.27;;;;;;;23.08;71.65;95481.34;5066773;28;20240;-72
2023/09/25 09:58:00;;;;;;;11.75;5.53;;;;;;;23.20;72.41;95484.56;5036845;28;20259;-73
2023/09/25 10:00:26;;;;;;;12.18;5.20;;;;;;;23.24;72.13;95481.09;5067315;28;20255;-73
2023/09/25 10:02:51;;;;;;;11.93;5.40;;;;;;;23.32;71.74;95490.47;5064746;28;20852;-73
2023/09/25 10:05:17;;;;;;;9.52;5.25;;;;;;;23.31;72.42;95483.50;5046282;28;20612;-73
2023/09/25 10:08:11;;;;;;;11.68;5.30;;;;;;;23.23;71.78;95487.53;5033059;28;20255;-73
2023/09/25 10:10:46;;;;;;;12.50;5.50;;;;;;;23.15;72.28;95482.69;5069658;28;20229;-73
2023/09/25 10:13:22;;;;;;;13.55;5.22;;;;;;;23.08;70.68;95489.34;5056181;28;20252;-73
2023/09/25 10:15:55;;;;;;;12.57;5.03;;;;;;;22.97;70.76;95488.53;5052506;28;20702;-74
2023/09/25 10:18:21;;;;;;;10.93;5.65;;;;;;;22.96;72.03;95486.91;5036225;28;20229;-73
2023/09/25 10:20:46;;;;;;;10.93;5.55;;;;;;;22.98;71.20;95481.28;5066051;28;20252;-73
2023/09/25 10:23:22;;;;;;;9.40;5.60;;;;;;;22.87;71.22;95477.00;5057105;28;20236;-74
2023/09/25 10:25:57;;;;;;;9.95;5.70;;;;;;;22.95;71.13;95481.84;5040960;28;20227;-74
2023/09/25 10:28:34;;;;;;;10.65;5.65;;;;;;;23.04;71.86;95475.72;5048272;28;20252;-73
2023/09/25 10:30:59;;;;;;;11.70;5.53;;;;;;;23.07;71.31;95477.84;5052303;28;21067;-73
2023/09/25 10:33:29;;;;;;;14.38;5.35;;;;;;;23.06;70.63;95480.78;5050825;28;20232;-73
2023/09/25 10:35:59;;;;;;;13.30;5.43;;;;;;;23.21;70.75;95484.31;5073846;28;20272;-74
2023/09/25 10:38:28;;;;;;;11.05;5.40;;;;;;;23.35;69.72;95465.94;5054320;28;20228;-73
2023/09/25 10:40:58;;;;;;;13.23;5.68;;;;;;;23.40;69.34;95472.06;5054895;28;20297;-74
2023/09/25 10:43:24;;;;;;;15.32;5.43;;;;;;;23.57;69.86;95468.34;5054671;28;20308;-73
2023/09/25 10:45:50;;;;;;;7.78;5.43;;;;;;;23.75;69.38;95471.28;5065809;28;20731;-74
2023/09/25 10:48:16;;;;;;;10.00;6.13;;;;;;;23.98;69.97;95476.06;5066820;28;20312;-74
2023/09/25 10:50:43;;;;;;;12.70;5.32;;;;;;;23.90;68.48;95473.97;5056395;28;20235;-73
2023/09/25 10:53:09;;;;;;;8.68;5.18;;;;;;;23.87;66.34;95479.84;5054292;28;20220;-74
2023/09/25 10:55:35;;;;;;;12.43;4.88;;;;;;;23.82;66.62;95471.81;5071031;28;20294;-74
2023/09/25 10:58:02;;;;;;;9.48;5.03;;;;;;;23.76;66.68;95478.25;5060335;28;20648;-75
2023/09/25 11:00:28;;;;;;;12.68;4.88;;;;;;;23.59;67.31;95484.91;5050108;28;20229;-74
2023/09/25 11:02:53;;;;;;;7.88;5.07;;;;;;;23.49;68.01;95477.69;5065227;28;20316;-73
2023/09/25 11:05:19;;;;;;;11.45;4.97;;;;;;;23.48;68.15;95469.97;5068619;28;20294;-74
2023/09/25 11:07:44;;;;;;;12.27;5.00;;;;;;;23.50;67.40;95471.28;5055844;28;20231;-73
2023/09/25 11:10:16;;;;;;;11.25;5.40;;;;;;;23.48;68.42;95476.09;5045530;28;20239;-73
2023/09/25 11:12:42;;;;;;;8.98;5.10;;;;;;;23.39;68.05;95473.16;5076367;28;20323;-73
2023/09/25 11:15:11;;;;;;;11.73;5.28;;;;;;;23.48;69.42;95476.09;5055059;28;20305;-74
2023/09/25 11:17:40;;;;;;;10.55;4.80;;;;;;;23.49;67.58;95480.38;5074982;28;20228;-74
2023/09/25 11:20:11;;;;;;;9.07;5.18;;;;;;;23.55;67.30;95462.47;5088016;28;20254;-73
2023/09/25 11:22:39;;;;;;;12.98;6.07;;;;;;;23.53;72.44;95468.06;5052017;28;20718;-74
2023/09/25 11:25:10;;;;;;;13.05;7.53;;;;;;;23.14;76.15;95473.06;5069434;28;20224;-74
2023/09/25 11:27:36;;;;;;;16.55;8.10;;;;;;;23.00;78.01;95471.19;5047707;28;20306;-74
2023/09/25 11:30:14;;;;;;;13.63;8.23;;;;;;;22.81;78.89;95464.72;5075414;28;20705;-73